Chiricana — 3EKU3 — position and weather

sailwx.info

Track history (hours):
 
Tides and Currents Weather Stations Pressure Air Temp Water Temp Dewpoint Dewpoint Depression Visibility Wind Speed Wind Dir Waves Ship Positions

Chiricana

Last reported at 2015-Aug-01 17:21 UTC. Time now 2015-Aug-03 23:25 UTC.
Position N 31°50' W 080°31'.

Length 300 m; draft 11.5 m.

Type: Ship (hazmat cat D). MMSI: 372829000.

Date/timePositionNaut miles runAvg speedWind from/ knotsBaromVisibWave heightAir tempDewpointWater temp
2015-Aug-01 17:21N 31°50' W 080°31'1316.6
2015-Aug-01 16:33N 31°58' W 080°43'1312.5
2015-Aug-01 15:34N 32°04' W 080°57'7 7.2
2015-Aug-01 14:34N 32°05' W 081°05'4 3.9
2015-Aug-01 13:34N 32°08' W 081°08'0 0.0
2015-Aug-01 12:32N 32°08' W 081°08'0 0.0
2015-Aug-01 11:32N 32°08' W 081°08'0 0.0
2015-Aug-01 10:32N 32°08' W 081°08'0 0.0
2015-Aug-01 09:32N 32°08' W 081°08'0 0.0
2015-Aug-01 08:32N 32°08' W 081°08'0 0.0
2015-Aug-01 07:32N 32°08' W 081°08'0 0.0
2015-Aug-01 06:32N 32°08' W 081°08'0 0.0
2015-Aug-01 05:32N 32°08' W 081°08'0 0.0
2015-Aug-01 04:29N 32°08' W 081°08'0 0.0
2015-Aug-01 03:32N 32°08' W 081°08'0 0.0
2015-Aug-01 02:32N 32°08' W 081°08'0 0.0
2015-Aug-01 01:32N 32°08' W 081°08'0 0.0
2015-Aug-01 00:32N 32°08' W 081°08'0 0.0
2015-Jul-31 23:32N 32°08' W 081°08'0 0.0
2015-Jul-31 22:32N 32°08' W 081°08'0 0.0
2015-Jul-31 21:32N 32°08' W 081°08'0 0.0
2015-Jul-31 20:32N 32°08' W 081°08'0 0.0
2015-Jul-31 19:32N 32°08' W 081°08'0 0.0
2015-Jul-31 18:32N 32°08' W 081°08'0 0.0
2015-Jul-31 17:32N 32°08' W 081°08'0 0.0
2015-Jul-31 16:32N 32°08' W 081°08'0 0.0
2015-Jul-31 15:32N 32°08' W 081°08'0 0.0
2015-Jul-31 14:32N 32°08' W 081°08'0 0.0
2015-Jul-31 13:32N 32°08' W 081°08'0 0.0
2015-Jul-31 12:32N 32°08' W 081°08'0 0.0
2015-Jul-31 11:32N 32°08' W 081°08'0 0.0
2015-Jul-31 10:32N 32°08' W 081°08'0 0.3
2015-Jul-31 09:34N 32°08' W 081°08'4 3.8
2015-Jul-31 08:33N 32°05' W 081°05'6 5.7
2015-Jul-31 07:34N 32°05' W 080°59'9 9.4
2015-Jul-31 06:34N 32°01' W 080°49'9 8.8
2015-Jul-31 05:33N 31°57' W 080°39'1212.2
2015-Jul-31 04:33N 31°56' W 080°25'1716.9
2015-Jul-31 03:32N 32°01' W 080°06'1616.9
2015-Jul-31 02:34N 32°07' W 079°47'1616.2
2015-Jul-31 01:34N 32°13' W 079°30'4916.1
2015-Jul-30 22:30N 32°29' W 078°35'1516.5
2015-Jul-30 21:34N 32°38' W 078°20'15316.6
2015-Jul-30 12:18N 34°21' W 076°03'13113.2
2015-Jul-30 02:26N 36°28' W 075°23'1416.1
2015-Jul-30 01:33N 36°38' W 075°35'1515.2
2015-Jul-30 00:33N 36°49' W 075°48'1313.4
2015-Jul-29 23:33N 36°57' W 076°01'1313.1
2015-Jul-29 22:34N 37°00' W 076°17'200 5.1
2015-Jul-28 07:19N 37°09' W 072°07'1418.8
2015-Jul-28 06:33N 37°11' W 071°49'  
2015-Jul-23 15:03N 40°17' W 028°04'918.9
2015-Jul-23 14:34N 40°16' W 027°51'2218.8
2015-Jul-23 13:24N 40°12' W 027°23'28318.8
2015-Jul-22 22:17N 39°16' W 021°22'1618.9
2015-Jul-22 21:26N 39°12' W 021°02'3518.9
2015-Jul-22 19:33N 39°04' W 020°18'4118.9
2015-Jul-22 17:24N 38°54' W 019°27'  
Track history (hours):
 
Tides and Currents Weather Stations Pressure Air Temp Water Temp Dewpoint Dewpoint Depression Visibility Wind Speed Wind Dir Waves Ship Positions

Chiricana

Last reported at 2015-Aug-01 17:21 UTC. Time now 2015-Aug-03 23:25 UTC.
Position N 31°50' W 080°31'.

Length 300 m; draft 11.5 m.

Type: Ship (hazmat cat D). MMSI: 372829000.

Date/timePositionNaut miles runAvg speedWind from/ knotsBaromVisibWave heightAir tempDewpointWater temp
2015-Aug-01 17:21N 31°50' W 080°31'1316.6
2015-Aug-01 16:33N 31°58' W 080°43'1312.5
2015-Aug-01 15:34N 32°04' W 080°57'7 7.2
2015-Aug-01 14:34N 32°05' W 081°05'4 3.9
2015-Aug-01 13:34N 32°08' W 081°08'0 0.0
2015-Aug-01 12:32N 32°08' W 081°08'0 0.0
2015-Aug-01 11:32N 32°08' W 081°08'0 0.0
2015-Aug-01 10:32N 32°08' W 081°08'0 0.0
2015-Aug-01 09:32N 32°08' W 081°08'0 0.0
2015-Aug-01 08:32N 32°08' W 081°08'0 0.0
2015-Aug-01 07:32N 32°08' W 081°08'0 0.0
2015-Aug-01 06:32N 32°08' W 081°08'0 0.0
2015-Aug-01 05:32N 32°08' W 081°08'0 0.0
2015-Aug-01 04:29N 32°08' W 081°08'0 0.0
2015-Aug-01 03:32N 32°08' W 081°08'0 0.0
2015-Aug-01 02:32N 32°08' W 081°08'0 0.0
2015-Aug-01 01:32N 32°08' W 081°08'0 0.0
2015-Aug-01 00:32N 32°08' W 081°08'0 0.0
2015-Jul-31 23:32N 32°08' W 081°08'0 0.0
2015-Jul-31 22:32N 32°08' W 081°08'0 0.0
2015-Jul-31 21:32N 32°08' W 081°08'0 0.0
2015-Jul-31 20:32N 32°08' W 081°08'0 0.0
2015-Jul-31 19:32N 32°08' W 081°08'0 0.0
2015-Jul-31 18:32N 32°08' W 081°08'0 0.0
2015-Jul-31 17:32N 32°08' W 081°08'0 0.0
2015-Jul-31 16:32N 32°08' W 081°08'0 0.0
2015-Jul-31 15:32N 32°08' W 081°08'0 0.0
2015-Jul-31 14:32N 32°08' W 081°08'0 0.0
2015-Jul-31 13:32N 32°08' W 081°08'0 0.0
2015-Jul-31 12:32N 32°08' W 081°08'0 0.0
2015-Jul-31 11:32N 32°08' W 081°08'0 0.0
2015-Jul-31 10:32N 32°08' W 081°08'0 0.3
2015-Jul-31 09:34N 32°08' W 081°08'4 3.8
2015-Jul-31 08:33N 32°05' W 081°05'6 5.7
2015-Jul-31 07:34N 32°05' W 080°59'9 9.4
2015-Jul-31 06:34N 32°01' W 080°49'9 8.8
2015-Jul-31 05:33N 31°57' W 080°39'1212.2
2015-Jul-31 04:33N 31°56' W 080°25'1716.9
2015-Jul-31 03:32N 32°01' W 080°06'1616.9
2015-Jul-31 02:34N 32°07' W 079°47'1616.2
2015-Jul-31 01:34N 32°13' W 079°30'4916.1
2015-Jul-30 22:30N 32°29' W 078°35'1516.5
2015-Jul-30 21:34N 32°38' W 078°20'15316.6
2015-Jul-30 12:18N 34°21' W 076°03'13113.2
2015-Jul-30 02:26N 36°28' W 075°23'1416.1
2015-Jul-30 01:33N 36°38' W 075°35'1515.2
2015-Jul-30 00:33N 36°49' W 075°48'1313.4
2015-Jul-29 23:33N 36°57' W 076°01'1313.1
2015-Jul-29 22:34N 37°00' W 076°17'200 5.1
2015-Jul-28 07:19N 37°09' W 072°07'1418.8
2015-Jul-28 06:33N 37°11' W 071°49'  
2015-Jul-23 15:03N 40°17' W 028°04'918.9
2015-Jul-23 14:34N 40°16' W 027°51'2218.8
2015-Jul-23 13:24N 40°12' W 027°23'28318.8
2015-Jul-22 22:17N 39°16' W 021°22'1618.9
2015-Jul-22 21:26N 39°12' W 021°02'3518.9
2015-Jul-22 19:33N 39°04' W 020°18'4118.9
2015-Jul-22 17:24N 38°54' W 019°27'  

Dump ship's entire track history